Terminal Aerodrome Forecast
Issued by NWS

Home | Current Version | Previous Version | Text Only | Print | Product List | Glossary On
Versions: 1 2 3 4 5 6 7 8 9 10 11 12 13 14 15 16
509
FTUS43 KAPX 282013 AAA
TAFAPN
TAF AMD
KAPN 282013Z 2820/2918 32006KT P6SM -SHRA VCTS BKN025CB
      TEMPO 2820/2823 32012G21KT 5SM -TSRA BKN012CB
     FM290000 VRB03KT P6SM VCSH OVC060
     FM290300 00000KT 4SM BR BKN035
     FM291100 24005KT P6SM BKN050
     FM291400 24008KT P6SM VCSH SCT150=

USA.gov is the U.S. government's official web portal to all federal, state and local government web resources and services.